createdAt,value
2023-01-03T00:06:04.181Z,89.86
2023-01-03T00:16:25.552Z,89.81
2023-01-03T00:26:47.035Z,90.24
2023-01-03T00:37:08.406Z,90.38
2023-01-03T00:47:29.755Z,90.29
2023-01-03T00:57:51.113Z,90.90
2023-01-03T01:08:12.492Z,90.25
2023-01-03T01:18:34.601Z,91.39
2023-01-03T01:28:56.095Z,90.35
2023-01-03T01:39:21.792Z,91.11
2023-01-03T01:49:43.988Z,90.68
2023-01-03T02:00:07.035Z,90.30
2023-01-03T02:10:51.026Z,89.52
2023-01-03T02:21:16.870Z,89.25
2023-01-03T02:31:41.025Z,90.01
2023-01-03T02:42:30.330Z,89.35
2023-01-03T02:52:54.993Z,89.22
2023-01-03T03:03:19.601Z,88.96
2023-01-03T03:13:45.633Z,88.47
2023-01-03T03:24:30.231Z,89.46
2023-01-03T03:34:52.800Z,89.55
2023-01-03T03:45:24.298Z,90.19
2023-01-03T03:56:00.327Z,89.76
2023-01-03T04:06:28.225Z,90.41
2023-01-03T04:16:49.636Z,90.25
2023-01-03T04:27:11.088Z,91.56
2023-01-03T04:37:32.724Z,91.17
2023-01-03T04:47:54.276Z,91.82
2023-01-03T04:58:15.775Z,90.67
2023-01-03T05:08:37.185Z,91.30
2023-01-03T05:18:59.088Z,90.48
2023-01-03T05:29:21.579Z,90.39
2023-01-03T05:39:42.997Z,91.21
2023-01-03T05:50:04.746Z,91.25
2023-01-03T06:00:26.140Z,91.10
2023-01-03T06:10:47.625Z,91.10
2023-01-03T06:21:09.102Z,91.26
2023-01-03T06:31:30.538Z,91.94
2023-01-03T06:41:51.965Z,91.73
2023-01-03T06:52:34.020Z,92.21
2023-01-03T07:02:55.502Z,92.10
2023-01-03T07:13:35.682Z,92.22
2023-01-03T07:23:58.161Z,91.88
2023-01-03T07:34:19.574Z,91.76
2023-01-03T07:44:40.988Z,91.94
2023-01-03T07:55:02.417Z,91.77
2023-01-03T08:05:24.475Z,91.56
2023-01-03T08:15:51.158Z,92.16
2023-01-03T08:26:13.855Z,92.21
2023-01-03T08:36:38.131Z,92.32
2023-01-03T08:47:02.634Z,91.74
2023-01-03T08:57:24.088Z,92.32
2023-01-03T09:07:45.458Z,92.44
2023-01-03T09:18:07.568Z,92.25
2023-01-03T09:28:29.068Z,91.74
2023-01-03T09:38:50.468Z,92.11
2023-01-03T09:49:13.433Z,92.35
2023-01-03T09:59:55.173Z,92.03
2023-01-03T10:10:16.577Z,92.78
2023-01-03T10:20:44.064Z,91.48
2023-01-03T10:31:14.806Z,91.11
2023-01-03T10:41:42.144Z,92.58
2023-01-03T10:52:12.239Z,92.22
2023-01-03T11:02:42.303Z,90.82
2023-01-03T11:13:22.671Z,91.48
2023-01-03T11:23:44.013Z,90.27
2023-01-03T11:34:21.431Z,89.88
2023-01-03T11:44:57.500Z,90.43
2023-01-03T11:55:44.506Z,90.31
2023-01-03T12:06:08.582Z,90.48
2023-01-03T12:16:33.159Z,89.27
2023-01-03T12:27:05.592Z,91.13
2023-01-03T12:37:29.802Z,90.82
2023-01-03T12:47:51.221Z,91.88
2023-01-03T12:58:12.571Z,90.13
2023-01-03T13:08:46.500Z,90.46
2023-01-03T13:19:20.150Z,90.54
2023-01-03T13:29:43.042Z,90.74
2023-01-03T13:40:18.262Z,90.67
2023-01-03T13:50:39.650Z,90.89
2023-01-03T14:01:06.218Z,91.08
2023-01-03T14:12:01.515Z,90.49
2023-01-03T14:22:31.647Z,90.55
2023-01-03T14:32:53.543Z,91.54
2023-01-03T14:43:21.100Z,91.86
2023-01-03T14:53:43.906Z,92.85
2023-01-03T15:04:06.024Z,92.46
2023-01-03T15:14:35.513Z,93.90
2023-01-03T15:25:04.750Z,94.57
2023-01-03T15:35:40.601Z,95.00
2023-01-03T15:46:10.794Z,94.74
2023-01-03T15:56:34.521Z,94.26
2023-01-03T16:06:55.942Z,94.23
2023-01-03T16:17:24.662Z,93.11
2023-01-03T16:27:46.417Z,92.72
2023-01-03T16:38:13.281Z,92.05
2023-01-03T16:48:38.959Z,91.52
2023-01-03T16:59:00.363Z,91.64
2023-01-03T17:09:31.945Z,91.99
2023-01-03T17:20:03.802Z,91.82
2023-01-03T17:30:27.418Z,91.82
2023-01-03T17:40:49.600Z,91.60
2023-01-03T17:51:12.506Z,92.01
2023-01-03T18:01:34.241Z,91.75
2023-01-03T18:11:55.761Z,92.14
2023-01-03T18:22:17.768Z,91.80
2023-01-03T18:32:39.128Z,92.38
2023-01-03T18:43:13.560Z,91.99
2023-01-03T18:53:35.410Z,92.15
2023-01-03T19:03:56.991Z,92.11
2023-01-03T19:14:18.633Z,92.21
2023-01-03T19:24:40.008Z,91.34
2023-01-03T19:35:01.370Z,91.63
2023-01-03T19:45:41.530Z,90.76
2023-01-03T19:56:03.209Z,89.75
2023-01-03T20:06:24.986Z,89.60
2023-01-03T20:16:47.004Z,89.33
2023-01-03T20:27:12.301Z,88.88
2023-01-03T20:37:33.660Z,88.61
2023-01-03T20:47:55.107Z,87.76
2023-01-03T20:58:17.727Z,87.76
2023-01-03T21:08:54.403Z,87.42
2023-01-03T21:19:17.084Z,86.87
2023-01-03T21:29:38.426Z,87.54
2023-01-03T21:39:59.773Z,87.19
2023-01-03T21:50:21.780Z,86.68
2023-01-03T22:00:43.434Z,86.13
2023-01-03T22:11:04.928Z,85.97
2023-01-03T22:21:26.757Z,85.53
2023-01-03T22:31:48.131Z,85.42
2023-01-03T22:42:13.311Z,85.08
2023-01-03T22:52:37.979Z,85.05
2023-01-03T23:03:01.160Z,84.45
2023-01-03T23:13:22.531Z,84.24
2023-01-03T23:23:43.929Z,84.47
2023-01-03T23:34:05.307Z,83.57
2023-01-03T23:44:26.710Z,83.81
2023-01-03T23:54:48.132Z,82.68
